createdAt,value
2023-02-12T00:00:25.117Z,69.895804
2023-02-12T00:05:20.115Z,71.340845
2023-02-12T00:10:17.872Z,71.737324
2023-02-12T00:15:20.640Z,71.971528
2023-02-12T00:20:15.861Z,71.336111
2023-02-12T00:25:16.030Z,70.826389
2023-02-12T00:30:16.527Z,71.165493
2023-02-12T00:35:18.736Z,71.346809
2023-02-12T00:40:16.565Z,72.049296
2023-02-12T00:45:23.837Z,72.520567
2023-02-12T00:50:35.600Z,72.430496
2023-02-12T00:55:16.521Z,71.330769
2023-02-12T01:00:17.257Z,70.130986
2023-02-12T01:05:17.686Z,69.165753
2023-02-12T01:10:15.756Z,68.320139
2023-02-12T01:15:17.990Z,67.913103
2023-02-12T01:20:18.243Z,67.452083
2023-02-12T01:25:22.144Z,67.633571
2023-02-12T01:30:16.195Z,67.313571
2023-02-12T01:35:18.344Z,66.866434
2023-02-12T01:40:26.203Z,66.238462
2023-02-12T01:45:19.687Z,65.628472
2023-02-12T01:50:17.495Z,65.367586
2023-02-12T01:55:25.012Z,65.286897
2023-02-12T02:00:19.464Z,65.732414
2023-02-12T02:05:16.694Z,65.668493
2023-02-12T02:10:17.227Z,65.456250
2023-02-12T02:15:26.806Z,65.894406
2023-02-12T02:20:28.406Z,66.216783
2023-02-12T02:25:22.015Z,66.303497
2023-02-12T02:30:19.104Z,66.297260
2023-02-12T02:35:15.825Z,66.116552
2023-02-12T02:40:19.324Z,65.865753
2023-02-12T02:45:20.853Z,65.600000
2023-02-12T02:50:18.270Z,65.691667
2023-02-12T02:55:18.934Z,66.077622
2023-02-12T03:00:19.432Z,66.765734
2023-02-12T03:05:17.985Z,66.766897
2023-02-12T03:10:17.702Z,67.102113
2023-02-12T03:15:16.379Z,68.174648
2023-02-12T03:20:16.267Z,69.252778
2023-02-12T03:25:15.968Z,69.678169
2023-02-12T03:30:16.364Z,70.368056
2023-02-12T03:35:16.611Z,70.722069
2023-02-12T03:40:25.725Z,71.311034
2023-02-12T03:45:26.839Z,71.466667
2023-02-12T03:50:29.145Z,71.221379
2023-02-12T03:55:23.448Z,71.340278
2023-02-12T04:00:33.546Z,71.100000
2023-02-12T04:05:24.233Z,70.951389
2023-02-12T04:10:26.228Z,71.135862
2023-02-12T04:15:24.466Z,72.122535
2023-02-12T04:20:15.545Z,72.619149
2023-02-12T04:25:27.942Z,72.861972
2023-02-12T04:30:32.236Z,72.857042
2023-02-12T04:35:34.059Z,72.513287
2023-02-12T04:40:25.797Z,72.202797
2023-02-12T04:45:24.863Z,72.774825
2023-02-12T04:50:18.576Z,72.469718
2023-02-12T04:55:29.811Z,72.152817
2023-02-12T05:00:16.129Z,72.971831
2023-02-12T05:05:18.032Z,73.348951
2023-02-12T05:10:16.244Z,73.456552
2023-02-12T05:15:16.234Z,73.138194
2023-02-12T05:20:17.545Z,73.532414
2023-02-12T05:25:19.694Z,73.512500
2023-02-12T05:30:16.673Z,73.322378
2023-02-12T05:35:17.230Z,73.099306
2023-02-12T05:40:16.159Z,72.937324
2023-02-12T05:45:15.889Z,73.293007
2023-02-12T05:50:17.049Z,73.093617
2023-02-12T05:55:15.818Z,73.780142
2023-02-12T06:00:16.038Z,74.556338
2023-02-12T06:05:16.237Z,73.605634
2023-02-12T06:10:16.408Z,73.748921
2023-02-12T06:15:17.031Z,75.118440
2023-02-12T06:20:16.724Z,75.277622
2023-02-12T06:25:16.616Z,75.726573
2023-02-12T06:30:15.833Z,75.032414
2023-02-12T06:35:16.778Z,74.184722
2023-02-12T06:40:19.276Z,74.511111
2023-02-12T06:45:16.836Z,75.131724
2023-02-12T06:50:16.661Z,75.286897
2023-02-12T06:55:17.915Z,75.829371
2023-02-12T07:00:17.726Z,76.097887
2023-02-12T07:05:18.816Z,75.948252
2023-02-12T07:10:15.698Z,76.022378
2023-02-12T07:15:16.970Z,76.023239
2023-02-12T07:20:15.867Z,75.723776
2023-02-12T07:25:16.773Z,75.482639
2023-02-12T07:30:16.456Z,75.694444
2023-02-12T07:35:16.043Z,76.419444
2023-02-12T07:40:16.702Z,75.913380
2023-02-12T07:45:15.862Z,77.104286
2023-02-12T07:50:17.175Z,76.864539
2023-02-12T07:55:16.530Z,76.154167
2023-02-12T08:00:15.742Z,76.322378
2023-02-12T08:05:16.303Z,76.173793
2023-02-12T08:10:16.085Z,76.855862
2023-02-12T08:15:16.373Z,77.189655
2023-02-12T08:20:15.931Z,77.486806
2023-02-12T08:25:17.389Z,76.904861
2023-02-12T08:30:17.168Z,76.260274
2023-02-12T08:35:16.205Z,76.697945
2023-02-12T08:40:18.109Z,77.638095
2023-02-12T08:45:17.416Z,78.948980
2023-02-12T08:50:22.854Z,78.301351
2023-02-12T08:55:18.307Z,78.024832
2023-02-12T09:00:20.817Z,77.812081
2023-02-12T09:05:18.451Z,78.986486
2023-02-12T09:10:18.173Z,79.215436
2023-02-12T09:15:21.551Z,78.517568
2023-02-12T09:20:17.098Z,78.847973
2023-02-12T09:25:19.513Z,79.118243
2023-02-12T09:30:17.574Z,78.259864
2023-02-12T09:35:19.094Z,77.987075
2023-02-12T09:40:16.960Z,78.169595
2023-02-12T09:45:17.676Z,77.876351
2023-02-12T09:50:16.885Z,77.560811
2023-02-12T09:55:21.491Z,77.006803
2023-02-12T10:00:17.515Z,76.391096
2023-02-12T10:05:19.898Z,76.625342
2023-02-12T10:10:21.976Z,76.646939
2023-02-12T10:15:15.899Z,77.021233
2023-02-12T10:20:18.452Z,77.473469
2023-02-12T10:25:16.564Z,78.451020
2023-02-12T10:30:26.429Z,79.230872
2023-02-12T10:35:19.793Z,79.036301
2023-02-12T10:40:18.354Z,79.189116
2023-02-12T10:45:20.578Z,79.072483
2023-02-12T10:50:16.066Z,78.921622
2023-02-12T10:55:18.655Z,78.335811
2023-02-12T11:00:24.442Z,78.987838
2023-02-12T11:05:25.219Z,79.030872
2023-02-12T11:10:18.444Z,78.671622
2023-02-12T11:15:17.326Z,77.818243
2023-02-12T11:20:17.443Z,77.502027
2023-02-12T11:25:23.022Z,78.740940
2023-02-12T11:30:24.176Z,78.357143
2023-02-12T11:35:21.525Z,77.803401
2023-02-12T11:40:24.254Z,77.494521
2023-02-12T11:45:21.380Z,78.978472
2023-02-12T11:50:28.205Z,79.957931
2023-02-12T11:55:19.992Z,79.560274
2023-02-12T12:00:17.569Z,78.461111
2023-02-12T12:05:19.038Z,77.792414
2023-02-12T12:10:22.865Z,77.579167
2023-02-12T12:15:15.877Z,77.600000
2023-02-12T12:20:19.687Z,77.718493
2023-02-12T12:25:22.612Z,78.094483
2023-02-12T12:30:25.857Z,78.140000
2023-02-12T12:35:22.194Z,78.367586
2023-02-12T12:40:27.657Z,78.933562
2023-02-12T12:45:41.292Z,79.196575
2023-02-12T12:50:21.179Z,78.887500
2023-02-12T12:55:25.305Z,78.964138
2023-02-12T13:00:20.833Z,78.949315
2023-02-12T13:05:27.571Z,79.238356
2023-02-12T13:10:25.324Z,79.896575
2023-02-12T13:15:15.866Z,79.611034
2023-02-12T13:20:18.089Z,78.823288
2023-02-12T13:25:26.043Z,78.878472
2023-02-12T13:30:20.834Z,78.351020
2023-02-12T13:35:27.595Z,77.839726
2023-02-12T13:40:23.105Z,77.883562
2023-02-12T13:45:21.091Z,77.555102
2023-02-12T13:50:16.978Z,78.723810
2023-02-12T13:55:28.467Z,79.709524
2023-02-12T14:00:16.881Z,80.666892
2023-02-12T14:05:23.948Z,81.212752
2023-02-12T14:10:29.725Z,80.977703
2023-02-12T14:15:26.311Z,80.991275
2023-02-12T14:20:17.046Z,81.314286
2023-02-12T14:25:17.829Z,81.634014
2023-02-12T14:30:21.215Z,80.650676
2023-02-12T14:35:20.915Z,80.391216
2023-02-12T14:40:16.241Z,80.433333
2023-02-12T14:45:18.300Z,80.071528
2023-02-12T14:50:18.108Z,80.145455
2023-02-12T14:55:22.230Z,81.941844
2023-02-12T15:00:15.917Z,82.943262
2023-02-12T15:05:17.419Z,83.895070
2023-02-12T15:10:15.637Z,83.281690
2023-02-12T15:15:16.450Z,83.534247
2023-02-12T15:20:16.813Z,83.058904
2023-02-12T15:25:16.008Z,82.795205
2023-02-12T15:30:25.601Z,82.949306
2023-02-12T15:35:16.314Z,83.255634
2023-02-12T15:40:16.134Z,83.773050
2023-02-12T15:45:17.074Z,84.010563
2023-02-12T15:50:16.583Z,83.322535
2023-02-12T15:55:16.932Z,82.875912
2023-02-12T16:00:16.410Z,83.056522
2023-02-12T16:05:15.738Z,83.138235
2023-02-12T16:10:16.334Z,83.718248
2023-02-12T16:15:17.595Z,83.232847
2023-02-12T16:20:16.028Z,83.400730
2023-02-12T16:25:18.213Z,83.515441
2023-02-12T16:30:15.865Z,83.089051
2023-02-12T16:35:17.342Z,82.866667
2023-02-12T16:40:15.646Z,82.685106
2023-02-12T16:45:15.991Z,82.240141
2023-02-12T16:50:16.764Z,80.783333
2023-02-12T16:55:16.745Z,81.153846
2023-02-12T17:00:16.115Z,81.712500
2023-02-12T17:05:15.570Z,82.664748
2023-02-12T17:10:16.570Z,83.515827
2023-02-12T17:15:16.676Z,84.061765
2023-02-12T17:20:15.403Z,83.898529
2023-02-12T17:25:15.735Z,83.295652
2023-02-12T17:30:16.637Z,82.373759
2023-02-12T17:35:16.666Z,81.585915
2023-02-12T17:40:16.211Z,81.108511
2023-02-12T17:45:17.747Z,79.301408
2023-02-12T17:50:16.490Z,78.219718
2023-02-12T17:55:16.856Z,78.563121
2023-02-12T18:00:17.104Z,79.202143
2023-02-12T18:05:16.137Z,77.005674
2023-02-12T18:10:17.133Z,74.310714
2023-02-12T18:15:15.947Z,75.407143
2023-02-12T18:20:16.306Z,74.139716
2023-02-12T18:25:17.411Z,72.857857
2023-02-12T18:30:16.255Z,72.739286
2023-02-12T18:35:16.097Z,72.774648
2023-02-12T18:40:16.177Z,71.118310
2023-02-12T18:45:16.572Z,71.171329
2023-02-12T18:50:16.221Z,72.200000
2023-02-12T18:55:20.729Z,73.278261
2023-02-12T19:00:16.273Z,74.542143
2023-02-12T19:05:16.365Z,75.290441
2023-02-12T19:10:16.523Z,76.443066
2023-02-12T19:15:18.219Z,76.217647
2023-02-12T19:20:20.947Z,76.707353
2023-02-12T19:25:16.311Z,75.466197
2023-02-12T19:30:16.718Z,74.332394
2023-02-12T19:35:16.873Z,74.715278
2023-02-12T19:40:16.497Z,74.227465
2023-02-12T19:45:16.496Z,72.972535
2023-02-12T19:50:15.928Z,71.454861
2023-02-12T19:55:16.213Z,69.803497
2023-02-12T20:00:16.135Z,69.440146
2023-02-12T20:05:16.471Z,70.503623
2023-02-12T20:10:18.234Z,70.673239
2023-02-12T20:15:16.929Z,69.970423
2023-02-12T20:20:16.166Z,70.692857
2023-02-12T20:25:17.010Z,72.220000
2023-02-12T20:30:17.009Z,72.501449
2023-02-12T20:35:16.410Z,72.921739
2023-02-12T20:40:16.181Z,73.020144
2023-02-12T20:45:15.927Z,74.088321
2023-02-12T20:50:15.949Z,73.483212
2023-02-12T20:55:15.722Z,72.133824
2023-02-12T21:00:16.377Z,71.779412
2023-02-12T21:05:15.790Z,71.510219
2023-02-12T21:10:16.015Z,70.557971
2023-02-12T21:15:16.045Z,69.044444
2023-02-12T21:20:17.060Z,66.285714
2023-02-12T21:25:15.873Z,64.051724
2023-02-12T21:30:15.771Z,64.516552
2023-02-12T21:35:16.937Z,63.976429
2023-02-12T21:40:17.494Z,64.033103
2023-02-12T21:45:16.646Z,63.768382
2023-02-12T21:50:17.027Z,64.550735
2023-02-12T21:55:17.414Z,65.931111
2023-02-12T22:00:15.932Z,66.943382
2023-02-12T22:05:16.541Z,66.996377
2023-02-12T22:10:15.958Z,67.231159
2023-02-12T22:15:16.498Z,66.971014
2023-02-12T22:20:16.082Z,66.910145
2023-02-12T22:25:17.188Z,67.108696
2023-02-12T22:30:16.159Z,66.837956
2023-02-12T22:35:15.943Z,66.434307
2023-02-12T22:40:17.685Z,65.286232
2023-02-12T22:45:18.416Z,65.273944
2023-02-12T22:50:16.922Z,65.402174
2023-02-12T22:55:15.892Z,66.297794
2023-02-12T23:00:17.034Z,66.422628
2023-02-12T23:05:17.080Z,66.616667
2023-02-12T23:10:16.089Z,66.671329
2023-02-12T23:15:15.772Z,66.315972
2023-02-12T23:20:16.612Z,66.453957
2023-02-12T23:25:15.750Z,66.699275
2023-02-12T23:30:16.402Z,67.428467
2023-02-12T23:35:16.553Z,68.502143
2023-02-12T23:40:15.647Z,68.852518
2023-02-12T23:45:16.187Z,68.736691
2023-02-12T23:50:16.054Z,68.817986
2023-02-12T23:55:16.092Z,68.757857
